Impacts TAF Board INFO
FOR SITUATIONAL AWARENESS. NOT TO BE USED FOR FLIGHT PLANNING PURPOSES.
IDs:

KSAN - San Diego Intl Arpt, CA, US

Issued at 0520 UTC 23 Feb 2018
Updated at 0622 UTC 23 Feb 2018
Potential Impact None Slight Moderate High
Time<<24/07Z 24/08Z 24/09Z 24/10Z 24/11Z 24/12Z 24/13Z 24/14Z 24/15Z 24/16Z 24/17Z 24/18Z 24/19Z
Type PRVL PRVL PRVL PRVL PRVL
VIS >6 >6 >6 >6 >6
CIG -- -- -- -- --
Cover FEW FEW FEW FEW FEW
FltCat VFR VFR VFR VFR VFR
WX -- -- -- -- --
WDir VRB VRB VRB VRB VRB
WSpd 5 5 5 5 5
WGst -- -- -- -- --

Raw TAF
KSAN 230520Z 2306/2412 29008KT P6SM VCSH FEW035 BKN050
  FM231200 27010G18KT P6SM VCSH SCT035 BKN050
  FM232000 29014G24KT P6SM SCT035 SCT050
  FM240100 30010KT P6SM SCT050
  FM240300 VRB05KT P6SM FEW050


METAR Board
Radar Display
Forecast Discussion

FOR SITUATIONAL AWARENESS. NOT TO BE USED FOR FLIGHT PLANNING PURPOSES.